sensor_id;sensor_type;location;lat;lon;timestamp;P1;durP1;ratioP1;P2;durP2;ratioP2
63653;SDS011;49809;47.418;19.080;2023-06-24T00:01:32;4.47;;;3.30;;
63653;SDS011;49809;47.418;19.080;2023-06-24T00:05:11;5.07;;;3.60;;
63653;SDS011;49809;47.418;19.080;2023-06-24T00:08:15;4.10;;;3.10;;
63653;SDS011;49809;47.418;19.080;2023-06-24T00:11:41;4.65;;;3.37;;
63653;SDS011;49809;47.418;19.080;2023-06-24T00:14:51;4.68;;;3.40;;
63653;SDS011;49809;47.418;19.080;2023-06-24T00:17:54;4.37;;;3.22;;
63653;SDS011;49809;47.418;19.080;2023-06-24T00:21:10;3.33;;;2.83;;
63653;SDS011;49809;47.418;19.080;2023-06-24T00:24:13;4.32;;;2.92;;
63653;SDS011;49809;47.418;19.080;2023-06-24T00:27:20;6.72;;;2.60;;
63653;SDS011;49809;47.418;19.080;2023-06-24T00:31:06;3.80;;;2.35;;
63653;SDS011;49809;47.418;19.080;2023-06-24T00:34:32;4.37;;;2.55;;
63653;SDS011;49809;47.418;19.080;2023-06-24T00:37:40;3.97;;;2.58;;
63653;SDS011;49809;47.418;19.080;2023-06-24T00:40:45;3.95;;;2.53;;
63653;SDS011;49809;47.418;19.080;2023-06-24T00:43:52;4.53;;;2.40;;
63653;SDS011;49809;47.418;19.080;2023-06-24T00:47:28;4.05;;;2.30;;
63653;SDS011;49809;47.418;19.080;2023-06-24T00:51:06;4.47;;;2.30;;
63653;SDS011;49809;47.418;19.080;2023-06-24T00:55:06;4.60;;;2.60;;
63653;SDS011;49809;47.418;19.080;2023-06-24T00:58:11;4.75;;;2.83;;
63653;SDS011;49809;47.418;19.080;2023-06-24T01:01:19;4.00;;;2.53;;
63653;SDS011;49809;47.418;19.080;2023-06-24T01:04:25;3.30;;;2.58;;
63653;SDS011;49809;47.418;19.080;2023-06-24T01:10:35;5.07;;;2.40;;
63653;SDS011;49809;47.418;19.080;2023-06-24T01:14:05;3.70;;;2.17;;
63653;SDS011;49809;47.418;19.080;2023-06-24T01:17:32;3.33;;;2.17;;
63653;SDS011;49809;47.418;19.080;2023-06-24T01:20:45;3.45;;;2.30;;
63653;SDS011;49809;47.418;19.080;2023-06-24T01:24:25;5.12;;;2.25;;
63653;SDS011;49809;47.418;19.080;2023-06-24T01:27:43;3.30;;;2.40;;
63653;SDS011;49809;47.418;19.080;2023-06-24T01:31:22;2.45;;;1.77;;
63653;SDS011;49809;47.418;19.080;2023-06-24T01:37:50;2.50;;;1.92;;
63653;SDS011;49809;47.418;19.080;2023-06-24T01:41:16;1.83;;;1.70;;
63653;SDS011;49809;47.418;19.080;2023-06-24T01:44:48;4.60;;;1.95;;
63653;SDS011;49809;47.418;19.080;2023-06-24T01:48:04;2.85;;;1.77;;
63653;SDS011;49809;47.418;19.080;2023-06-24T01:51:17;2.40;;;1.60;;
63653;SDS011;49809;47.418;19.080;2023-06-24T01:54:32;2.08;;;1.83;;
63653;SDS011;49809;47.418;19.080;2023-06-24T01:57:41;2.50;;;1.60;;
63653;SDS011;49809;47.418;19.080;2023-06-24T02:00:49;2.22;;;1.83;;
63653;SDS011;49809;47.418;19.080;2023-06-24T02:03:59;3.62;;;1.80;;
63653;SDS011;49809;47.418;19.080;2023-06-24T02:07:04;4.00;;;1.77;;
63653;SDS011;49809;47.418;19.080;2023-06-24T02:10:08;4.03;;;2.08;;
63653;SDS011;49809;47.418;19.080;2023-06-24T02:13:32;2.97;;;2.00;;
63653;SDS011;49809;47.418;19.080;2023-06-24T02:16:41;3.22;;;2.15;;
63653;SDS011;49809;47.418;19.080;2023-06-24T02:19:48;2.65;;;1.92;;
63653;SDS011;49809;47.418;19.080;2023-06-24T02:22:53;3.28;;;1.90;;
63653;SDS011;49809;47.418;19.080;2023-06-24T02:26:00;2.85;;;2.08;;
63653;SDS011;49809;47.418;19.080;2023-06-24T02:29:38;4.03;;;1.70;;
63653;SDS011;49809;47.418;19.080;2023-06-24T02:32:50;2.78;;;1.80;;
63653;SDS011;49809;47.418;19.080;2023-06-24T02:39:31;4.35;;;1.83;;
63653;SDS011;49809;47.418;19.080;2023-06-24T02:42:34;2.22;;;1.73;;
63653;SDS011;49809;47.418;19.080;2023-06-24T02:45:38;2.97;;;2.03;;
63653;SDS011;49809;47.418;19.080;2023-06-24T02:48:44;4.75;;;1.70;;
63653;SDS011;49809;47.418;19.080;2023-06-24T02:51:57;3.58;;;1.77;;
63653;SDS011;49809;47.418;19.080;2023-06-24T02:55:05;3.03;;;2.00;;
63653;SDS011;49809;47.418;19.080;2023-06-24T02:58:13;3.12;;;1.70;;
63653;SDS011;49809;47.418;19.080;2023-06-24T03:01:20;5.28;;;1.80;;
63653;SDS011;49809;47.418;19.080;2023-06-24T03:04:30;3.55;;;1.87;;
63653;SDS011;49809;47.418;19.080;2023-06-24T03:07:33;2.72;;;1.80;;
63653;SDS011;49809;47.418;19.080;2023-06-24T03:10:44;2.40;;;1.40;;
63653;SDS011;49809;47.418;19.080;2023-06-24T03:14:09;2.45;;;1.92;;
63653;SDS011;49809;47.418;19.080;2023-06-24T03:17:13;2.90;;;1.98;;
63653;SDS011;49809;47.418;19.080;2023-06-24T03:20:20;3.78;;;1.50;;
63653;SDS011;49809;47.418;19.080;2023-06-24T03:23:24;3.35;;;1.80;;
63653;SDS011;49809;47.418;19.080;2023-06-24T03:26:37;3.05;;;1.52;;
63653;SDS011;49809;47.418;19.080;2023-06-24T03:29:45;1.93;;;1.20;;
63653;SDS011;49809;47.418;19.080;2023-06-24T03:32:51;1.40;;;1.20;;
63653;SDS011;49809;47.418;19.080;2023-06-24T03:35:57;1.50;;;1.10;;
63653;SDS011;49809;47.418;19.080;2023-06-24T03:39:01;1.77;;;1.27;;
63653;SDS011;49809;47.418;19.080;2023-06-24T03:42:07;2.00;;;1.10;;
63653;SDS011;49809;47.418;19.080;2023-06-24T03:45:13;3.75;;;1.30;;
63653;SDS011;49809;47.418;19.080;2023-06-24T03:48:40;1.73;;;1.00;;
63653;SDS011;49809;47.418;19.080;2023-06-24T03:51:47;1.83;;;1.33;;
63653;SDS011;49809;47.418;19.080;2023-06-24T03:55:10;1.48;;;1.20;;
63653;SDS011;49809;47.418;19.080;2023-06-24T03:58:14;1.37;;;1.15;;
63653;SDS011;49809;47.418;19.080;2023-06-24T04:01:19;1.80;;;1.10;;
63653;SDS011;49809;47.418;19.080;2023-06-24T04:04:31;2.45;;;0.85;;
63653;SDS011;49809;47.418;19.080;2023-06-24T04:07:44;3.58;;;1.00;;
63653;SDS011;49809;47.418;19.080;2023-06-24T04:10:54;2.67;;;1.20;;
63653;SDS011;49809;47.418;19.080;2023-06-24T04:14:01;1.00;;;0.82;;
63653;SDS011;49809;47.418;19.080;2023-06-24T04:17:05;1.10;;;0.98;;
63653;SDS011;49809;47.418;19.080;2023-06-24T04:20:09;1.70;;;1.23;;
63653;SDS011;49809;47.418;19.080;2023-06-24T04:23:14;4.15;;;1.40;;
63653;SDS011;49809;47.418;19.080;2023-06-24T04:26:37;2.05;;;1.00;;
63653;SDS011;49809;47.418;19.080;2023-06-24T04:29:52;1.40;;;1.00;;
63653;SDS011;49809;47.418;19.080;2023-06-24T04:32:55;1.30;;;0.90;;
63653;SDS011;49809;47.418;19.080;2023-06-24T04:36:01;1.93;;;1.00;;
63653;SDS011;49809;47.418;19.080;2023-06-24T04:39:08;1.33;;;1.05;;
63653;SDS011;49809;47.418;19.080;2023-06-24T04:42:15;1.67;;;0.90;;
63653;SDS011;49809;47.418;19.080;2023-06-24T04:45:22;1.50;;;0.95;;
63653;SDS011;49809;47.418;19.080;2023-06-24T04:49:10;1.52;;;0.93;;
63653;SDS011;49809;47.418;19.080;2023-06-24T04:52:14;0.88;;;0.70;;
63653;SDS011;49809;47.418;19.080;2023-06-24T04:55:17;1.40;;;0.90;;
63653;SDS011;49809;47.418;19.080;2023-06-24T04:58:44;1.40;;;0.88;;
63653;SDS011;49809;47.418;19.080;2023-06-24T05:02:28;1.75;;;0.90;;
63653;SDS011;49809;47.418;19.080;2023-06-24T05:05:40;0.73;;;0.73;;
63653;SDS011;49809;47.418;19.080;2023-06-24T05:13:36;1.75;;;0.88;;
63653;SDS011;49809;47.418;19.080;2023-06-24T05:16:43;0.60;;;0.60;;
63653;SDS011;49809;47.418;19.080;2023-06-24T05:20:05;1.25;;;0.73;;
63653;SDS011;49809;47.418;19.080;2023-06-24T05:23:28;1.33;;;0.70;;
63653;SDS011;49809;47.418;19.080;2023-06-24T05:27:07;2.35;;;0.82;;
63653;SDS011;49809;47.418;19.080;2023-06-24T05:30:14;0.80;;;0.70;;
63653;SDS011;49809;47.418;19.080;2023-06-24T05:33:42;0.80;;;0.73;;
63653;SDS011;49809;47.418;19.080;2023-06-24T05:36:53;0.70;;;0.60;;
63653;SDS011;49809;47.418;19.080;2023-06-24T05:39:59;0.70;;;0.70;;
63653;SDS011;49809;47.418;19.080;2023-06-24T05:43:25;3.37;;;0.60;;
63653;SDS011;49809;47.418;19.080;2023-06-24T05:46:31;2.95;;;0.70;;
63653;SDS011;49809;47.418;19.080;2023-06-24T05:49:37;0.88;;;0.75;;
63653;SDS011;49809;47.418;19.080;2023-06-24T05:52:43;0.60;;;0.52;;
63653;SDS011;49809;47.418;19.080;2023-06-24T05:55:47;1.95;;;0.70;;
63653;SDS011;49809;47.418;19.080;2023-06-24T05:59:10;1.12;;;0.62;;
63653;SDS011;49809;47.418;19.080;2023-06-24T06:02:14;0.80;;;0.70;;
63653;SDS011;49809;47.418;19.080;2023-06-24T06:05:18;0.80;;;0.60;;
63653;SDS011;49809;47.418;19.080;2023-06-24T06:08:25;1.90;;;0.60;;
63653;SDS011;49809;47.418;19.080;2023-06-24T06:12:00;1.08;;;0.60;;
63653;SDS011;49809;47.418;19.080;2023-06-24T06:15:04;0.88;;;0.65;;
63653;SDS011;49809;47.418;19.080;2023-06-24T06:18:09;0.70;;;0.70;;
63653;SDS011;49809;47.418;19.080;2023-06-24T06:21:23;0.95;;;0.60;;
63653;SDS011;49809;47.418;19.080;2023-06-24T06:24:26;0.98;;;0.70;;
63653;SDS011;49809;47.418;19.080;2023-06-24T06:27:50;1.02;;;0.50;;
63653;SDS011;49809;47.418;19.080;2023-06-24T06:30:53;0.60;;;0.60;;
63653;SDS011;49809;47.418;19.080;2023-06-24T06:33:56;1.48;;;0.85;;
63653;SDS011;49809;47.418;19.080;2023-06-24T06:37:00;0.62;;;0.60;;
63653;SDS011;49809;47.418;19.080;2023-06-24T06:40:49;0.95;;;0.70;;
63653;SDS011;49809;47.418;19.080;2023-06-24T06:43:54;1.15;;;0.60;;
63653;SDS011;49809;47.418;19.080;2023-06-24T06:47:02;1.92;;;0.68;;
63653;SDS011;49809;47.418;19.080;2023-06-24T06:50:06;1.70;;;0.93;;
63653;SDS011;49809;47.418;19.080;2023-06-24T06:53:13;1.67;;;0.70;;
63653;SDS011;49809;47.418;19.080;2023-06-24T06:56:18;0.60;;;0.55;;
63653;SDS011;49809;47.418;19.080;2023-06-24T06:59:25;1.05;;;0.90;;
63653;SDS011;49809;47.418;19.080;2023-06-24T07:02:30;1.02;;;0.73;;
63653;SDS011;49809;47.418;19.080;2023-06-24T07:06:13;2.20;;;1.00;;
63653;SDS011;49809;47.418;19.080;2023-06-24T07:09:16;2.05;;;0.98;;
63653;SDS011;49809;47.418;19.080;2023-06-24T07:12:24;1.42;;;0.80;;
63653;SDS011;49809;47.418;19.080;2023-06-24T07:15:31;1.35;;;0.82;;
63653;SDS011;49809;47.418;19.080;2023-06-24T07:18:57;1.48;;;0.85;;
63653;SDS011;49809;47.418;19.080;2023-06-24T07:22:00;1.27;;;0.90;;
63653;SDS011;49809;47.418;19.080;2023-06-24T07:25:04;1.05;;;0.70;;
63653;SDS011;49809;47.418;19.080;2023-06-24T07:28:07;1.62;;;0.90;;
63653;SDS011;49809;47.418;19.080;2023-06-24T07:31:15;0.90;;;0.90;;
63653;SDS011;49809;47.418;19.080;2023-06-24T07:34:21;1.58;;;1.00;;
63653;SDS011;49809;47.418;19.080;2023-06-24T07:37:25;2.37;;;0.82;;
63653;SDS011;49809;47.418;19.080;2023-06-24T07:40:28;1.15;;;0.80;;
63653;SDS011;49809;47.418;19.080;2023-06-24T07:43:32;1.12;;;0.88;;
63653;SDS011;49809;47.418;19.080;2023-06-24T07:46:35;1.30;;;0.90;;
63653;SDS011;49809;47.418;19.080;2023-06-24T07:49:49;1.77;;;0.80;;
63653;SDS011;49809;47.418;19.080;2023-06-24T07:52:56;2.35;;;0.93;;
63653;SDS011;49809;47.418;19.080;2023-06-24T07:55:59;1.42;;;0.90;;
63653;SDS011;49809;47.418;19.080;2023-06-24T07:59:08;1.05;;;0.90;;
63653;SDS011;49809;47.418;19.080;2023-06-24T08:02:13;1.07;;;0.80;;
63653;SDS011;49809;47.418;19.080;2023-06-24T08:05:20;1.05;;;0.90;;
63653;SDS011;49809;47.418;19.080;2023-06-24T08:09:09;2.90;;;1.00;;
63653;SDS011;49809;47.418;19.080;2023-06-24T08:12:48;1.00;;;0.90;;
63653;SDS011;49809;47.418;19.080;2023-06-24T08:16:11;0.88;;;0.88;;
63653;SDS011;49809;47.418;19.080;2023-06-24T08:19:36;1.17;;;0.90;;
63653;SDS011;49809;47.418;19.080;2023-06-24T08:22:41;1.10;;;0.98;;
63653;SDS011;49809;47.418;19.080;2023-06-24T08:25:52;1.00;;;0.80;;
63653;SDS011;49809;47.418;19.080;2023-06-24T08:29:21;1.10;;;1.00;;
63653;SDS011;49809;47.418;19.080;2023-06-24T08:32:28;1.98;;;0.98;;
63653;SDS011;49809;47.418;19.080;2023-06-24T08:35:36;1.10;;;1.00;;
63653;SDS011;49809;47.418;19.080;2023-06-24T08:38:49;1.20;;;1.10;;
63653;SDS011;49809;47.418;19.080;2023-06-24T08:42:29;1.85;;;1.10;;
63653;SDS011;49809;47.418;19.080;2023-06-24T08:45:52;0.98;;;0.90;;
63653;SDS011;49809;47.418;19.080;2023-06-24T08:48:59;4.25;;;0.93;;
63653;SDS011;49809;47.418;19.080;2023-06-24T08:52:11;2.53;;;1.10;;
63653;SDS011;49809;47.418;19.080;2023-06-24T08:55:39;1.33;;;0.90;;
63653;SDS011;49809;47.418;19.080;2023-06-24T08:58:45;1.77;;;1.10;;
63653;SDS011;49809;47.418;19.080;2023-06-24T09:01:49;1.40;;;1.05;;
63653;SDS011;49809;47.418;19.080;2023-06-24T09:05:39;1.17;;;1.02;;
63653;SDS011;49809;47.418;19.080;2023-06-24T09:08:51;1.73;;;1.00;;
63653;SDS011;49809;47.418;19.080;2023-06-24T09:12:12;1.10;;;1.00;;
63653;SDS011;49809;47.418;19.080;2023-06-24T09:15:40;1.10;;;1.00;;
63653;SDS011;49809;47.418;19.080;2023-06-24T09:18:47;1.10;;;1.00;;
63653;SDS011;49809;47.418;19.080;2023-06-24T09:21:55;1.67;;;1.20;;
63653;SDS011;49809;47.418;19.080;2023-06-24T09:25:05;1.25;;;1.00;;
63653;SDS011;49809;47.418;19.080;2023-06-24T09:28:20;1.55;;;0.98;;
63653;SDS011;49809;47.418;19.080;2023-06-24T09:31:49;1.02;;;1.00;;
63653;SDS011;49809;47.418;19.080;2023-06-24T09:35:09;0.80;;;0.80;;
63653;SDS011;49809;47.418;19.080;2023-06-24T09:42:33;1.70;;;1.10;;
63653;SDS011;49809;47.418;19.080;2023-06-24T09:46:11;1.12;;;1.02;;
63653;SDS011;49809;47.418;19.080;2023-06-24T09:49:30;1.23;;;0.90;;
63653;SDS011;49809;47.418;19.080;2023-06-24T09:53:03;1.17;;;0.90;;
63653;SDS011;49809;47.418;19.080;2023-06-24T09:56:17;1.52;;;1.20;;
63653;SDS011;49809;47.418;19.080;2023-06-24T09:59:37;2.42;;;1.33;;
63653;SDS011;49809;47.418;19.080;2023-06-24T10:03:15;1.25;;;1.10;;
63653;SDS011;49809;47.418;19.080;2023-06-24T10:06:58;1.30;;;1.20;;
63653;SDS011;49809;47.418;19.080;2023-06-24T10:10:23;1.55;;;1.10;;
63653;SDS011;49809;47.418;19.080;2023-06-24T10:13:37;0.90;;;0.90;;
63653;SDS011;49809;47.418;19.080;2023-06-24T10:17:00;1.17;;;1.08;;
63653;SDS011;49809;47.418;19.080;2023-06-24T10:21:18;1.75;;;1.00;;
63653;SDS011;49809;47.418;19.080;2023-06-24T10:25:27;1.10;;;1.00;;
63653;SDS011;49809;47.418;19.080;2023-06-24T10:32:26;1.40;;;1.27;;
63653;SDS011;49809;47.418;19.080;2023-06-24T10:36:31;1.40;;;1.12;;
63653;SDS011;49809;47.418;19.080;2023-06-24T10:40:09;1.40;;;1.30;;
63653;SDS011;49809;47.418;19.080;2023-06-24T10:43:40;3.65;;;1.08;;
63653;SDS011;49809;47.418;19.080;2023-06-24T10:46:53;1.12;;;1.02;;
63653;SDS011;49809;47.418;19.080;2023-06-24T10:50:10;3.15;;;1.62;;
63653;SDS011;49809;47.418;19.080;2023-06-24T10:53:56;1.12;;;1.02;;
63653;SDS011;49809;47.418;19.080;2023-06-24T10:57:09;1.50;;;1.20;;
63653;SDS011;49809;47.418;19.080;2023-06-24T11:01:08;2.25;;;1.25;;
63653;SDS011;49809;47.418;19.080;2023-06-24T11:13:12;1.20;;;1.10;;
63653;SDS011;49809;47.418;19.080;2023-06-24T11:17:15;2.15;;;1.20;;
63653;SDS011;49809;47.418;19.080;2023-06-24T11:21:12;1.20;;;1.10;;
63653;SDS011;49809;47.418;19.080;2023-06-24T11:25:45;1.85;;;1.10;;
63653;SDS011;49809;47.418;19.080;2023-06-24T11:30:04;2.28;;;1.10;;
63653;SDS011;49809;47.418;19.080;2023-06-24T11:34:14;1.20;;;1.05;;
63653;SDS011;49809;47.418;19.080;2023-06-24T11:37:48;1.30;;;1.20;;
63653;SDS011;49809;47.418;19.080;2023-06-24T11:41:23;2.08;;;1.05;;
63653;SDS011;49809;47.418;19.080;2023-06-24T11:45:27;1.27;;;1.17;;
63653;SDS011;49809;47.418;19.080;2023-06-24T11:59:14;3.08;;;1.10;;
63653;SDS011;49809;47.418;19.080;2023-06-24T12:02:37;1.33;;;1.23;;
63653;SDS011;49809;47.418;19.080;2023-06-24T12:14:12;1.35;;;1.20;;
63653;SDS011;49809;47.418;19.080;2023-06-24T12:22:32;1.45;;;1.08;;
63653;SDS011;49809;47.418;19.080;2023-06-24T12:33:37;1.40;;;1.10;;
63653;SDS011;49809;47.418;19.080;2023-06-24T12:37:53;1.33;;;0.90;;
63653;SDS011;49809;47.418;19.080;2023-06-24T12:41:46;1.75;;;1.00;;
63653;SDS011;49809;47.418;19.080;2023-06-24T12:46:06;1.20;;;1.10;;
63653;SDS011;49809;47.418;19.080;2023-06-24T12:49:51;0.82;;;0.82;;
63653;SDS011;49809;47.418;19.080;2023-06-24T12:58:24;1.87;;;1.10;;
63653;SDS011;49809;47.418;19.080;2023-06-24T13:02:12;0.80;;;0.80;;
63653;SDS011;49809;47.418;19.080;2023-06-24T13:05:49;2.83;;;1.20;;
63653;SDS011;49809;47.418;19.080;2023-06-24T13:09:31;1.58;;;1.17;;
63653;SDS011;49809;47.418;19.080;2023-06-24T13:13:47;1.27;;;1.17;;
63653;SDS011;49809;47.418;19.080;2023-06-24T13:17:23;1.10;;;1.00;;
63653;SDS011;49809;47.418;19.080;2023-06-24T13:21:19;1.10;;;1.00;;
63653;SDS011;49809;47.418;19.080;2023-06-24T13:34:36;2.30;;;1.20;;
63653;SDS011;49809;47.418;19.080;2023-06-24T13:39:39;1.30;;;1.20;;
63653;SDS011;49809;47.418;19.080;2023-06-24T13:43:38;2.20;;;1.30;;
63653;SDS011;49809;47.418;19.080;2023-06-24T13:47:38;1.80;;;1.33;;
63653;SDS011;49809;47.418;19.080;2023-06-24T13:55:30;2.53;;;1.33;;
63653;SDS011;49809;47.418;19.080;2023-06-24T13:59:28;1.52;;;1.33;;
63653;SDS011;49809;47.418;19.080;2023-06-24T14:03:02;2.85;;;1.37;;
63653;SDS011;49809;47.418;19.080;2023-06-24T14:06:18;1.70;;;1.60;;
63653;SDS011;49809;47.418;19.080;2023-06-24T14:10:14;1.73;;;1.62;;
63653;SDS011;49809;47.418;19.080;2023-06-24T14:14:23;3.25;;;1.85;;
63653;SDS011;49809;47.418;19.080;2023-06-24T14:22:18;2.53;;;1.85;;
63653;SDS011;49809;47.418;19.080;2023-06-24T14:25:57;2.00;;;1.80;;
63653;SDS011;49809;47.418;19.080;2023-06-24T14:29:28;2.17;;;1.98;;
63653;SDS011;49809;47.418;19.080;2023-06-24T14:33:53;1.87;;;1.77;;
63653;SDS011;49809;47.418;19.080;2023-06-24T14:38:00;2.17;;;1.90;;
63653;SDS011;49809;47.418;19.080;2023-06-24T14:41:38;2.50;;;2.30;;
63653;SDS011;49809;47.418;19.080;2023-06-24T14:45:08;2.20;;;2.00;;
63653;SDS011;49809;47.418;19.080;2023-06-24T14:48:16;6.27;;;2.10;;
63653;SDS011;49809;47.418;19.080;2023-06-24T14:51:51;2.53;;;2.33;;
63653;SDS011;49809;47.418;19.080;2023-06-24T14:55:03;2.03;;;1.80;;
63653;SDS011;49809;47.418;19.080;2023-06-24T14:58:31;2.50;;;2.30;;
63653;SDS011;49809;47.418;19.080;2023-06-24T15:01:58;3.30;;;2.37;;
63653;SDS011;49809;47.418;19.080;2023-06-24T15:05:26;2.47;;;2.28;;
63653;SDS011;49809;47.418;19.080;2023-06-24T15:12:32;2.28;;;2.08;;
63653;SDS011;49809;47.418;19.080;2023-06-24T15:16:36;2.53;;;2.12;;
63653;SDS011;49809;47.418;19.080;2023-06-24T15:20:22;2.70;;;2.12;;
63653;SDS011;49809;47.418;19.080;2023-06-24T15:24:25;2.12;;;1.92;;
63653;SDS011;49809;47.418;19.080;2023-06-24T15:28:27;3.22;;;1.75;;
63653;SDS011;49809;47.418;19.080;2023-06-24T15:31:32;2.20;;;2.00;;
63653;SDS011;49809;47.418;19.080;2023-06-24T15:40:45;2.30;;;2.10;;
63653;SDS011;49809;47.418;19.080;2023-06-24T15:43:48;2.20;;;2.00;;
63653;SDS011;49809;47.418;19.080;2023-06-24T15:46:52;2.85;;;2.42;;
63653;SDS011;49809;47.418;19.080;2023-06-24T15:50:15;2.65;;;2.20;;
63653;SDS011;49809;47.418;19.080;2023-06-24T15:53:19;2.90;;;2.33;;
63653;SDS011;49809;47.418;19.080;2023-06-24T15:56:22;2.60;;;2.37;;
63653;SDS011;49809;47.418;19.080;2023-06-24T15:59:26;2.33;;;2.12;;
63653;SDS011;49809;47.418;19.080;2023-06-24T16:02:30;2.65;;;2.17;;
63653;SDS011;49809;47.418;19.080;2023-06-24T16:05:35;2.47;;;2.22;;
63653;SDS011;49809;47.418;19.080;2023-06-24T16:08:49;2.47;;;2.12;;
63653;SDS011;49809;47.418;19.080;2023-06-24T16:12:22;2.28;;;2.00;;
63653;SDS011;49809;47.418;19.080;2023-06-24T16:15:25;2.50;;;2.20;;
63653;SDS011;49809;47.418;19.080;2023-06-24T16:18:58;3.50;;;2.10;;
63653;SDS011;49809;47.418;19.080;2023-06-24T16:22:03;2.90;;;2.25;;
63653;SDS011;49809;47.418;19.080;2023-06-24T16:25:07;2.83;;;2.40;;
63653;SDS011;49809;47.418;19.080;2023-06-24T16:28:11;3.92;;;2.60;;
63653;SDS011;49809;47.418;19.080;2023-06-24T16:31:35;4.32;;;2.33;;
63653;SDS011;49809;47.418;19.080;2023-06-24T16:34:50;2.62;;;2.35;;
63653;SDS011;49809;47.418;19.080;2023-06-24T16:37:54;2.95;;;2.10;;
63653;SDS011;49809;47.418;19.080;2023-06-24T16:44:28;3.00;;;2.30;;
63653;SDS011;49809;47.418;19.080;2023-06-24T16:47:39;4.68;;;2.90;;
63653;SDS011;49809;47.418;19.080;2023-06-24T16:51:07;2.83;;;2.53;;
63653;SDS011;49809;47.418;19.080;2023-06-24T16:54:10;3.03;;;2.22;;
63653;SDS011;49809;47.418;19.080;2023-06-24T16:57:42;3.05;;;2.40;;
63653;SDS011;49809;47.418;19.080;2023-06-24T17:00:45;3.05;;;2.67;;
63653;SDS011;49809;47.418;19.080;2023-06-24T17:03:51;3.15;;;2.60;;
63653;SDS011;49809;47.418;19.080;2023-06-24T17:06:55;6.45;;;2.83;;
63653;SDS011;49809;47.418;19.080;2023-06-24T17:09:58;3.40;;;2.60;;
63653;SDS011;49809;47.418;19.080;2023-06-24T17:13:01;4.32;;;2.83;;
63653;SDS011;49809;47.418;19.080;2023-06-24T17:16:06;4.25;;;2.78;;
63653;SDS011;49809;47.418;19.080;2023-06-24T17:19:11;3.60;;;2.80;;
63653;SDS011;49809;47.418;19.080;2023-06-24T17:22:17;3.28;;;2.70;;
63653;SDS011;49809;47.418;19.080;2023-06-24T17:25:40;4.15;;;3.10;;
63653;SDS011;49809;47.418;19.080;2023-06-24T17:28:44;5.05;;;3.28;;
63653;SDS011;49809;47.418;19.080;2023-06-24T17:31:47;3.80;;;2.72;;
63653;SDS011;49809;47.418;19.080;2023-06-24T17:34:51;4.47;;;2.62;;
63653;SDS011;49809;47.418;19.080;2023-06-24T17:37:58;5.28;;;2.92;;
63653;SDS011;49809;47.418;19.080;2023-06-24T17:41:10;3.20;;;2.90;;
63653;SDS011;49809;47.418;19.080;2023-06-24T17:44:49;4.32;;;3.33;;
63653;SDS011;49809;47.418;19.080;2023-06-24T17:47:55;5.05;;;3.30;;
63653;SDS011;49809;47.418;19.080;2023-06-24T17:50:58;4.25;;;3.17;;
63653;SDS011;49809;47.418;19.080;2023-06-24T17:54:02;4.35;;;3.03;;
63653;SDS011;49809;47.418;19.080;2023-06-24T17:57:26;3.85;;;3.08;;
63653;SDS011;49809;47.418;19.080;2023-06-24T18:00:33;4.18;;;3.20;;
63653;SDS011;49809;47.418;19.080;2023-06-24T18:03:44;3.50;;;3.17;;
63653;SDS011;49809;47.418;19.080;2023-06-24T18:06:49;3.45;;;3.00;;
63653;SDS011;49809;47.418;19.080;2023-06-24T18:10:16;4.43;;;3.00;;
63653;SDS011;49809;47.418;19.080;2023-06-24T18:13:23;3.90;;;3.17;;
63653;SDS011;49809;47.418;19.080;2023-06-24T18:16:32;3.22;;;2.70;;
63653;SDS011;49809;47.418;19.080;2023-06-24T18:19:39;4.57;;;3.22;;
63653;SDS011;49809;47.418;19.080;2023-06-24T18:22:46;4.20;;;3.12;;
63653;SDS011;49809;47.418;19.080;2023-06-24T18:25:49;3.30;;;2.90;;
63653;SDS011;49809;47.418;19.080;2023-06-24T18:28:53;3.85;;;3.20;;
63653;SDS011;49809;47.418;19.080;2023-06-24T18:31:58;4.35;;;3.20;;
63653;SDS011;49809;47.418;19.080;2023-06-24T18:35:09;4.45;;;3.15;;
63653;SDS011;49809;47.418;19.080;2023-06-24T18:38:13;5.22;;;3.10;;
63653;SDS011;49809;47.418;19.080;2023-06-24T18:41:16;4.28;;;3.03;;
63653;SDS011;49809;47.418;19.080;2023-06-24T18:44:21;3.80;;;3.20;;
63653;SDS011;49809;47.418;19.080;2023-06-24T18:47:26;4.15;;;3.08;;
63653;SDS011;49809;47.418;19.080;2023-06-24T18:50:29;4.28;;;3.22;;
63653;SDS011;49809;47.418;19.080;2023-06-24T18:53:37;4.25;;;3.22;;
63653;SDS011;49809;47.418;19.080;2023-06-24T18:56:40;5.37;;;3.03;;
63653;SDS011;49809;47.418;19.080;2023-06-24T19:00:05;5.18;;;3.37;;
63653;SDS011;49809;47.418;19.080;2023-06-24T19:03:36;5.47;;;3.40;;
63653;SDS011;49809;47.418;19.080;2023-06-24T19:06:43;4.53;;;3.42;;
63653;SDS011;49809;47.418;19.080;2023-06-24T19:09:47;5.65;;;3.22;;
63653;SDS011;49809;47.418;19.080;2023-06-24T19:12:51;4.25;;;3.00;;
63653;SDS011;49809;47.418;19.080;2023-06-24T19:15:58;5.62;;;3.35;;
63653;SDS011;49809;47.418;19.080;2023-06-24T19:19:28;6.22;;;3.22;;
63653;SDS011;49809;47.418;19.080;2023-06-24T19:22:33;5.53;;;3.45;;
63653;SDS011;49809;47.418;19.080;2023-06-24T19:25:39;5.62;;;3.67;;
63653;SDS011;49809;47.418;19.080;2023-06-24T19:28:43;5.47;;;3.70;;
63653;SDS011;49809;47.418;19.080;2023-06-24T19:31:46;4.60;;;3.70;;
63653;SDS011;49809;47.418;19.080;2023-06-24T19:35:39;5.45;;;3.37;;
63653;SDS011;49809;47.418;19.080;2023-06-24T19:39:19;5.50;;;3.70;;
63653;SDS011;49809;47.418;19.080;2023-06-24T19:46:56;4.40;;;3.65;;
63653;SDS011;49809;47.418;19.080;2023-06-24T19:55:12;4.75;;;3.70;;
63653;SDS011;49809;47.418;19.080;2023-06-24T19:58:58;4.62;;;3.60;;
63653;SDS011;49809;47.418;19.080;2023-06-24T20:03:00;7.62;;;3.25;;
63653;SDS011;49809;47.418;19.080;2023-06-24T20:41:28;6.35;;;3.25;;
63653;SDS011;49809;47.418;19.080;2023-06-24T20:45:18;5.25;;;3.78;;
63653;SDS011;49809;47.418;19.080;2023-06-24T20:52:28;8.15;;;3.22;;
63653;SDS011;49809;47.418;19.080;2023-06-24T20:56:05;4.40;;;3.47;;
63653;SDS011;49809;47.418;19.080;2023-06-24T20:59:47;4.97;;;3.37;;
63653;SDS011;49809;47.418;19.080;2023-06-24T21:03:10;6.57;;;4.43;;
63653;SDS011;49809;47.418;19.080;2023-06-24T21:10:54;5.62;;;3.65;;
63653;SDS011;49809;47.418;19.080;2023-06-24T21:18:55;4.68;;;3.35;;
63653;SDS011;49809;47.418;19.080;2023-06-24T21:22:13;4.47;;;3.28;;
63653;SDS011;49809;47.418;19.080;2023-06-24T21:30:06;9.55;;;3.65;;
63653;SDS011;49809;47.418;19.080;2023-06-24T21:33:48;6.43;;;3.58;;
63653;SDS011;49809;47.418;19.080;2023-06-24T21:37:30;5.00;;;3.70;;
63653;SDS011;49809;47.418;19.080;2023-06-24T21:41:15;5.00;;;3.25;;
63653;SDS011;49809;47.418;19.080;2023-06-24T21:49:38;5.50;;;3.78;;
63653;SDS011;49809;47.418;19.080;2023-06-24T21:53:41;4.62;;;3.40;;
63653;SDS011;49809;47.418;19.080;2023-06-24T21:57:34;4.32;;;3.45;;
63653;SDS011;49809;47.418;19.080;2023-06-24T22:01:10;5.22;;;3.72;;
63653;SDS011;49809;47.418;19.080;2023-06-24T22:04:51;4.47;;;3.37;;
63653;SDS011;49809;47.418;19.080;2023-06-24T22:08:33;4.55;;;3.12;;
63653;SDS011;49809;47.418;19.080;2023-06-24T22:12:13;5.55;;;3.53;;
63653;SDS011;49809;47.418;19.080;2023-06-24T22:15:36;5.93;;;3.42;;
63653;SDS011;49809;47.418;19.080;2023-06-24T22:23:32;4.72;;;3.05;;
63653;SDS011;49809;47.418;19.080;2023-06-24T22:27:20;5.07;;;3.17;;
63653;SDS011;49809;47.418;19.080;2023-06-24T22:31:17;4.85;;;2.85;;
63653;SDS011;49809;47.418;19.080;2023-06-24T22:34:54;5.22;;;3.60;;
63653;SDS011;49809;47.418;19.080;2023-06-24T22:43:21;7.72;;;3.47;;
63653;SDS011;49809;47.418;19.080;2023-06-24T22:46:44;6.18;;;3.97;;